sensor_id;sensor_type;location;lat;lon;timestamp;pressure;altitude;pressure_sealevel;temperature;humidity
6530;BME280;3298;42.688;23.366;2023-01-30T02:06:01;51868.56;;;-145.06;71.18
6530;BME280;3298;42.688;23.366;2023-01-30T02:08:32;51837.84;;;-145.06;70.90
6530;BME280;3298;42.688;23.366;2023-01-30T02:11:05;51844.00;;;-145.06;71.37
6530;BME280;3298;42.688;23.366;2023-01-30T02:13:34;51850.13;;;-145.06;70.39
6530;BME280;3298;42.688;23.366;2023-01-30T02:16:02;51819.44;;;-145.06;71.25
6530;BME280;3298;42.688;23.366;2023-01-30T02:18:31;51831.72;;;-145.06;70.58
6530;BME280;3298;42.688;23.366;2023-01-30T02:21:33;51811.25;;;-145.06;70.88
6530;BME280;3298;42.688;23.366;2023-01-30T02:27:34;51813.28;;;-145.06;70.71
6530;BME280;3298;42.688;23.366;2023-01-30T02:30:34;51844.00;;;-145.06;70.41
6530;BME280;3298;42.688;23.366;2023-01-30T02:33:09;51819.44;;;-145.06;69.80
6530;BME280;3298;42.688;23.366;2023-01-30T02:35:50;51823.53;;;-145.06;70.47
6530;BME280;3298;42.688;23.366;2023-01-30T02:38:29;51819.44;;;-145.06;70.81
6530;BME280;3298;42.688;23.366;2023-01-30T02:41:04;51848.09;;;-145.06;70.55
6530;BME280;3298;42.688;23.366;2023-01-30T02:43:44;51813.28;;;-145.06;71.20
6530;BME280;3298;42.688;23.366;2023-01-30T02:46:18;51839.91;;;-145.06;70.22
6530;BME280;3298;42.688;23.366;2023-01-30T02:48:49;51850.13;;;-145.06;70.24
6530;BME280;3298;42.688;23.366;2023-01-30T02:51:21;51829.66;;;-145.06;71.27
6530;BME280;3298;42.688;23.366;2023-01-30T02:53:49;51846.03;;;-145.06;70.30
6530;BME280;3298;42.688;23.366;2023-01-30T02:56:16;51813.28;;;-145.06;70.20
6530;BME280;3298;42.688;23.366;2023-01-30T02:58:44;51811.25;;;-145.06;70.34
6530;BME280;3298;42.688;23.366;2023-01-30T03:01:34;51809.19;;;-145.06;70.66
6530;BME280;3298;42.688;23.366;2023-01-30T03:04:27;51827.63;;;-145.06;69.56
6530;BME280;3298;42.688;23.366;2023-01-30T03:07:04;51844.00;;;-145.06;70.84
6530;BME280;3298;42.688;23.366;2023-01-30T03:09:43;51835.81;;;-145.06;69.99
6530;BME280;3298;42.688;23.366;2023-01-30T03:12:17;51821.47;;;-145.06;69.47
6530;BME280;3298;42.688;23.366;2023-01-30T03:14:51;51821.47;;;-145.06;69.84
6530;BME280;3298;42.688;23.366;2023-01-30T03:17:23;51813.28;;;-145.06;68.71
6530;BME280;3298;42.688;23.366;2023-01-30T03:19:52;51831.72;;;-145.06;68.88
6530;BME280;3298;42.688;23.366;2023-01-30T03:22:19;51831.72;;;-145.06;69.28
6530;BME280;3298;42.688;23.366;2023-01-30T03:24:47;51844.00;;;-145.06;68.94
6530;BME280;3298;42.688;23.366;2023-01-30T03:27:15;51831.72;;;-145.06;69.43
6530;BME280;3298;42.688;23.366;2023-01-30T03:29:41;51805.09;;;-145.06;69.86
6530;BME280;3298;42.688;23.366;2023-01-30T03:32:08;51829.66;;;-145.06;70.02
6530;BME280;3298;42.688;23.366;2023-01-30T03:34:36;51846.03;;;-145.06;69.73
6530;BME280;3298;42.688;23.366;2023-01-30T03:37:03;51831.72;;;-145.06;69.15
6530;BME280;3298;42.688;23.366;2023-01-30T03:39:31;51852.19;;;-145.06;69.03
6530;BME280;3298;42.688;23.366;2023-01-30T03:41:58;51827.63;;;-145.06;69.97
6530;BME280;3298;42.688;23.366;2023-01-30T03:44:25;51835.81;;;-145.06;69.33
6530;BME280;3298;42.688;23.366;2023-01-30T03:46:52;51831.72;;;-145.06;68.96
6530;BME280;3298;42.688;23.366;2023-01-30T03:49:18;51809.19;;;-145.06;68.68
6530;BME280;3298;42.688;23.366;2023-01-30T03:51:47;51815.34;;;-145.06;69.14
6530;BME280;3298;42.688;23.366;2023-01-30T03:54:14;51852.19;;;-145.06;68.82
6530;BME280;3298;42.688;23.366;2023-01-30T03:56:41;51860.38;;;-145.06;68.60
6530;BME280;3298;42.688;23.366;2023-01-30T03:59:07;51839.91;;;-145.06;68.79
6530;BME280;3298;42.688;23.366;2023-01-30T04:01:34;51852.19;;;-145.06;68.66
6530;BME280;3298;42.688;23.366;2023-01-30T04:04:01;51823.53;;;-145.06;68.45
6530;BME280;3298;42.688;23.366;2023-01-30T04:06:28;51827.63;;;-145.06;67.88
6530;BME280;3298;42.688;23.366;2023-01-30T04:08:56;51856.28;;;-145.06;68.34
6530;BME280;3298;42.688;23.366;2023-01-30T04:11:23;51831.72;;;-145.06;69.08
6530;BME280;3298;42.688;23.366;2023-01-30T04:13:49;51817.38;;;-145.06;69.41
6530;BME280;3298;42.688;23.366;2023-01-30T04:16:19;51852.19;;;-145.06;69.99
6530;BME280;3298;42.688;23.366;2023-01-30T04:18:46;51848.09;;;-145.06;69.25
6530;BME280;3298;42.688;23.366;2023-01-30T04:21:13;51825.56;;;-145.06;69.52
6530;BME280;3298;42.688;23.366;2023-01-30T04:23:40;51839.91;;;-145.06;70.17
6530;BME280;3298;42.688;23.366;2023-01-30T04:26:09;51835.81;;;-145.06;69.77
6530;BME280;3298;42.688;23.366;2023-01-30T04:28:36;51833.75;;;-145.06;69.91
6530;BME280;3298;42.688;23.366;2023-01-30T04:31:03;51837.84;;;-145.06;69.27
6530;BME280;3298;42.688;23.366;2023-01-30T04:33:30;51844.00;;;-145.06;69.60
6530;BME280;3298;42.688;23.366;2023-01-30T04:36:00;51827.63;;;-145.06;69.54
6530;BME280;3298;42.688;23.366;2023-01-30T04:38:29;51829.66;;;-145.06;69.64
6530;BME280;3298;42.688;23.366;2023-01-30T04:40:56;51835.81;;;-145.06;70.00
6530;BME280;3298;42.688;23.366;2023-01-30T04:43:26;51821.47;;;-145.06;70.10
6530;BME280;3298;42.688;23.366;2023-01-30T04:45:53;51815.34;;;-145.06;70.10
6530;BME280;3298;42.688;23.366;2023-01-30T04:48:22;51819.44;;;-145.06;69.78
6530;BME280;3298;42.688;23.366;2023-01-30T04:50:51;51811.25;;;-145.06;70.66
6530;BME280;3298;42.688;23.366;2023-01-30T04:53:19;51837.84;;;-145.06;70.41
6530;BME280;3298;42.688;23.366;2023-01-30T04:55:46;51831.72;;;-145.06;70.54
6530;BME280;3298;42.688;23.366;2023-01-30T05:06:31;51823.53;;;-145.06;72.60
6530;BME280;3298;42.688;23.366;2023-01-30T05:08:59;51831.72;;;-145.06;72.18
6530;BME280;3298;42.688;23.366;2023-01-30T05:11:27;51827.63;;;-145.06;71.78
6530;BME280;3298;42.688;23.366;2023-01-30T05:13:55;51827.63;;;-145.06;71.79
6530;BME280;3298;42.688;23.366;2023-01-30T05:16:22;51833.75;;;-145.06;72.15
6530;BME280;3298;42.688;23.366;2023-01-30T05:18:49;51837.84;;;-145.06;71.28
6530;BME280;3298;42.688;23.366;2023-01-30T05:21:18;51841.94;;;-145.06;72.55
6530;BME280;3298;42.688;23.366;2023-01-30T05:23:47;51815.34;;;-145.06;71.80
6530;BME280;3298;42.688;23.366;2023-01-30T05:26:14;51823.53;;;-145.06;72.20
6530;BME280;3298;42.688;23.366;2023-01-30T05:28:42;51846.03;;;-145.06;72.21
6530;BME280;3298;42.688;23.366;2023-01-30T05:31:10;51860.38;;;-145.06;72.86
6530;BME280;3298;42.688;23.366;2023-01-30T05:33:38;51839.91;;;-145.06;72.30
6530;BME280;3298;42.688;23.366;2023-01-30T05:36:06;51866.50;;;-145.06;72.87
6530;BME280;3298;42.688;23.366;2023-01-30T05:38:33;51823.53;;;-145.06;73.51
6530;BME280;3298;42.688;23.366;2023-01-30T05:41:03;51841.94;;;-145.06;73.99
6530;BME280;3298;42.688;23.366;2023-01-30T05:43:31;51854.22;;;-145.06;74.08
6530;BME280;3298;42.688;23.366;2023-01-30T05:46:00;51856.28;;;-145.06;74.37
6530;BME280;3298;42.688;23.366;2023-01-30T05:48:27;51876.75;;;-145.06;74.02
6530;BME280;3298;42.688;23.366;2023-01-30T05:50:56;51839.91;;;-145.06;73.22
6530;BME280;3298;42.688;23.366;2023-01-30T05:53:25;51833.75;;;-145.06;74.61
6530;BME280;3298;42.688;23.366;2023-01-30T05:55:54;51827.63;;;-145.06;74.14
6530;BME280;3298;42.688;23.366;2023-01-30T05:58:22;51841.94;;;-145.06;74.19
6530;BME280;3298;42.688;23.366;2023-01-30T06:00:49;51831.72;;;-145.06;75.88
6530;BME280;3298;42.688;23.366;2023-01-30T06:03:17;51833.75;;;-145.06;74.53
6530;BME280;3298;42.688;23.366;2023-01-30T06:05:43;51831.72;;;-145.06;74.98
6530;BME280;3298;42.688;23.366;2023-01-30T06:08:10;51839.91;;;-145.06;75.26
6530;BME280;3298;42.688;23.366;2023-01-30T06:10:37;51839.91;;;-145.06;73.85
6530;BME280;3298;42.688;23.366;2023-01-30T06:13:04;51821.47;;;-145.06;74.30
6530;BME280;3298;42.688;23.366;2023-01-30T06:15:32;51827.63;;;-145.06;74.18
6530;BME280;3298;42.688;23.366;2023-01-30T06:17:59;51839.91;;;-145.06;74.78
6530;BME280;3298;42.688;23.366;2023-01-30T06:20:25;51809.19;;;-145.06;74.42
6530;BME280;3298;42.688;23.366;2023-01-30T06:22:52;51815.34;;;-145.06;74.60
6530;BME280;3298;42.688;23.366;2023-01-30T06:25:19;51839.91;;;-145.06;74.38
6530;BME280;3298;42.688;23.366;2023-01-30T06:27:46;51846.03;;;-145.06;75.30
6530;BME280;3298;42.688;23.366;2023-01-30T06:30:13;51844.00;;;-145.06;75.32
6530;BME280;3298;42.688;23.366;2023-01-30T06:32:41;51837.84;;;-145.06;76.02
6530;BME280;3298;42.688;23.366;2023-01-30T06:35:08;51856.28;;;-145.06;74.70
6530;BME280;3298;42.688;23.366;2023-01-30T06:37:35;51821.47;;;-145.06;74.54
6530;BME280;3298;42.688;23.366;2023-01-30T06:40:02;51831.72;;;-145.06;75.78
6530;BME280;3298;42.688;23.366;2023-01-30T06:42:29;51819.44;;;-145.06;75.76
6530;BME280;3298;42.688;23.366;2023-01-30T06:44:56;51835.81;;;-145.06;75.12
6530;BME280;3298;42.688;23.366;2023-01-30T06:47:23;51823.53;;;-145.06;73.97
6530;BME280;3298;42.688;23.366;2023-01-30T06:49:51;51846.03;;;-145.06;73.96
6530;BME280;3298;42.688;23.366;2023-01-30T06:52:18;51848.09;;;-145.06;74.39
6530;BME280;3298;42.688;23.366;2023-01-30T06:54:45;51854.22;;;-145.06;73.88
6530;BME280;3298;42.688;23.366;2023-01-30T06:57:12;51864.47;;;-145.06;73.70
6530;BME280;3298;42.688;23.366;2023-01-30T06:59:38;51852.19;;;-145.06;73.02
6530;BME280;3298;42.688;23.366;2023-01-30T07:02:05;51823.53;;;-145.06;74.74
6530;BME280;3298;42.688;23.366;2023-01-30T07:04:32;51854.22;;;-145.06;74.35
6530;BME280;3298;42.688;23.366;2023-01-30T07:07:00;51839.91;;;-145.06;74.41
6530;BME280;3298;42.688;23.366;2023-01-30T07:09:27;51825.56;;;-145.06;73.79
6530;BME280;3298;42.688;23.366;2023-01-30T07:11:54;51854.22;;;-145.06;73.49
6530;BME280;3298;42.688;23.366;2023-01-30T07:14:21;51825.56;;;-145.06;73.53
6530;BME280;3298;42.688;23.366;2023-01-30T07:16:47;51837.84;;;-145.06;72.53
6530;BME280;3298;42.688;23.366;2023-01-30T07:19:14;51831.72;;;-145.06;72.75
6530;BME280;3298;42.688;23.366;2023-01-30T07:21:41;51848.09;;;-145.06;72.08
6530;BME280;3298;42.688;23.366;2023-01-30T07:24:09;51837.84;;;-145.06;72.95
6530;BME280;3298;42.688;23.366;2023-01-30T07:26:36;51841.94;;;-145.06;71.74
6530;BME280;3298;42.688;23.366;2023-01-30T07:29:03;51827.63;;;-145.06;71.15
6530;BME280;3298;42.688;23.366;2023-01-30T07:31:30;51827.63;;;-145.06;71.50
6530;BME280;3298;42.688;23.366;2023-01-30T07:33:56;51844.00;;;-145.06;71.61
6530;BME280;3298;42.688;23.366;2023-01-30T07:36:23;51821.47;;;-145.06;71.25
6530;BME280;3298;42.688;23.366;2023-01-30T07:38:50;51829.66;;;-145.06;71.61
6530;BME280;3298;42.688;23.366;2023-01-30T07:41:18;51807.16;;;-145.06;71.60
6530;BME280;3298;42.688;23.366;2023-01-30T07:43:47;51848.09;;;-145.06;71.51
6530;BME280;3298;42.688;23.366;2023-01-30T07:46:14;51823.53;;;-145.06;71.71
6530;BME280;3298;42.688;23.366;2023-01-30T07:48:43;51829.66;;;-145.06;71.92
6530;BME280;3298;42.688;23.366;2023-01-30T07:51:10;51821.47;;;-145.06;71.21
6530;BME280;3298;42.688;23.366;2023-01-30T07:53:36;51823.53;;;-145.06;71.03
6530;BME280;3298;42.688;23.366;2023-01-30T07:56:05;51827.63;;;-145.06;71.11
6530;BME280;3298;42.688;23.366;2023-01-30T07:58:34;51839.91;;;-145.06;70.78
6530;BME280;3298;42.688;23.366;2023-01-30T08:01:01;51848.09;;;-145.06;71.58
6530;BME280;3298;42.688;23.366;2023-01-30T08:03:28;51835.81;;;-145.06;71.67
6530;BME280;3298;42.688;23.366;2023-01-30T08:05:55;51819.44;;;-145.06;70.69
6530;BME280;3298;42.688;23.366;2023-01-30T08:08:22;51823.53;;;-145.06;70.71
6530;BME280;3298;42.688;23.366;2023-01-30T08:10:49;51844.00;;;-145.06;70.12
6530;BME280;3298;42.688;23.366;2023-01-30T08:13:15;51839.91;;;-145.06;69.86
6530;BME280;3298;42.688;23.366;2023-01-30T08:15:44;51837.84;;;-145.06;70.48
6530;BME280;3298;42.688;23.366;2023-01-30T08:18:10;51858.31;;;-145.06;70.33
6530;BME280;3298;42.688;23.366;2023-01-30T08:20:37;51854.22;;;-145.06;70.94
6530;BME280;3298;42.688;23.366;2023-01-30T08:23:04;51833.75;;;-145.06;71.27
6530;BME280;3298;42.688;23.366;2023-01-30T08:25:31;51839.91;;;-145.06;70.69
6530;BME280;3298;42.688;23.366;2023-01-30T08:28:00;51823.53;;;-145.06;70.14
6530;BME280;3298;42.688;23.366;2023-01-30T08:30:27;51829.66;;;-145.06;70.33
6530;BME280;3298;42.688;23.366;2023-01-30T08:32:56;51827.63;;;-145.06;69.88
6530;BME280;3298;42.688;23.366;2023-01-30T08:35:23;51819.44;;;-145.06;69.60
6530;BME280;3298;42.688;23.366;2023-01-30T08:37:50;51839.91;;;-145.06;70.11
6530;BME280;3298;42.688;23.366;2023-01-30T08:40:17;51858.31;;;-145.06;68.70
6530;BME280;3298;42.688;23.366;2023-01-30T08:42:44;51835.81;;;-145.06;68.94
6530;BME280;3298;42.688;23.366;2023-01-30T08:45:11;51844.00;;;-145.06;68.79
6530;BME280;3298;42.688;23.366;2023-01-30T08:47:38;51856.28;;;-145.06;69.70
6530;BME280;3298;42.688;23.366;2023-01-30T08:50:08;51817.38;;;-145.06;69.30
6530;BME280;3298;42.688;23.366;2023-01-30T08:52:34;51833.75;;;-145.06;69.06
6530;BME280;3298;42.688;23.366;2023-01-30T08:55:01;51850.13;;;-145.06;68.58
6530;BME280;3298;42.688;23.366;2023-01-30T08:57:28;51819.44;;;-145.06;67.88
6530;BME280;3298;42.688;23.366;2023-01-30T08:59:56;51831.72;;;-145.06;68.03
6530;BME280;3298;42.688;23.366;2023-01-30T09:02:23;51823.53;;;-145.06;67.95
6530;BME280;3298;42.688;23.366;2023-01-30T09:04:50;51798.97;;;-145.06;68.26
6530;BME280;3298;42.688;23.366;2023-01-30T09:07:18;51788.72;;;-145.06;67.41
6530;BME280;3298;42.688;23.366;2023-01-30T09:09:45;51817.38;;;-145.06;67.23
6530;BME280;3298;42.688;23.366;2023-01-30T09:12:12;51844.00;;;-145.06;66.17
6530;BME280;3298;42.688;23.366;2023-01-30T09:14:39;51823.53;;;-145.06;65.96
6530;BME280;3298;42.688;23.366;2023-01-30T09:17:06;51817.38;;;-145.06;66.42
6530;BME280;3298;42.688;23.366;2023-01-30T09:19:33;51823.53;;;-145.06;66.46
6530;BME280;3298;42.688;23.366;2023-01-30T09:22:01;51839.91;;;-145.06;67.02
6530;BME280;3298;42.688;23.366;2023-01-30T09:24:30;51829.66;;;-145.06;66.31
6530;BME280;3298;42.688;23.366;2023-01-30T09:26:57;51839.91;;;-145.06;67.11
6530;BME280;3298;42.688;23.366;2023-01-30T09:29:24;51831.72;;;-145.06;67.11
6530;BME280;3298;42.688;23.366;2023-01-30T09:31:51;51829.66;;;-145.06;67.57
6530;BME280;3298;42.688;23.366;2023-01-30T09:34:18;51829.66;;;-145.06;68.40
6530;BME280;3298;42.688;23.366;2023-01-30T09:36:45;51829.66;;;-145.06;67.45
6530;BME280;3298;42.688;23.366;2023-01-30T09:39:11;51835.81;;;-145.06;68.21
6530;BME280;3298;42.688;23.366;2023-01-30T09:41:58;51819.44;;;-145.06;68.71
6530;BME280;3298;42.688;23.366;2023-01-30T09:47:34;51817.38;;;-145.06;67.82
6530;BME280;3298;42.688;23.366;2023-01-30T09:50:22;51848.09;;;-145.06;67.83
6530;BME280;3298;42.688;23.366;2023-01-30T09:53:01;51805.09;;;-145.06;68.50
6530;BME280;3298;42.688;23.366;2023-01-30T09:55:31;51811.25;;;-145.06;68.21
6530;BME280;3298;42.688;23.366;2023-01-30T09:58:00;51821.47;;;-145.06;67.14
6530;BME280;3298;42.688;23.366;2023-01-30T10:00:31;51811.25;;;-145.06;67.90
6530;BME280;3298;42.688;23.366;2023-01-30T10:03:05;51813.28;;;-145.06;66.72
6530;BME280;3298;42.688;23.366;2023-01-30T10:05:40;51852.19;;;-145.06;66.60
6530;BME280;3298;42.688;23.366;2023-01-30T10:08:28;51833.75;;;-145.06;67.42
6530;BME280;3298;42.688;23.366;2023-01-30T10:11:04;51833.75;;;-145.06;69.20
6530;BME280;3298;42.688;23.366;2023-01-30T10:14:02;51839.91;;;-145.06;67.82
6530;BME280;3298;42.688;23.366;2023-01-30T10:16:37;51848.09;;;-145.06;67.58
6530;BME280;3298;42.688;23.366;2023-01-30T10:19:19;51831.72;;;-145.06;67.36
6530;BME280;3298;42.688;23.366;2023-01-30T10:21:58;51848.09;;;-145.06;67.01
6530;BME280;3298;42.688;23.366;2023-01-30T10:24:47;51807.16;;;-145.06;67.79
6530;BME280;3298;42.688;23.366;2023-01-30T10:27:19;51809.19;;;-145.06;66.98
6530;BME280;3298;42.688;23.366;2023-01-30T10:29:50;51837.84;;;-145.06;66.02
6530;BME280;3298;42.688;23.366;2023-01-30T10:32:19;51827.63;;;-145.06;66.85
6530;BME280;3298;42.688;23.366;2023-01-30T10:34:53;51839.91;;;-145.06;66.72
6530;BME280;3298;42.688;23.366;2023-01-30T10:37:23;51839.91;;;-145.06;65.22
6530;BME280;3298;42.688;23.366;2023-01-30T10:39:58;51837.84;;;-145.06;63.71
6530;BME280;3298;42.688;23.366;2023-01-30T10:42:30;51831.72;;;-145.06;64.04
6530;BME280;3298;42.688;23.366;2023-01-30T10:45:09;51813.28;;;-145.06;64.24
6530;BME280;3298;42.688;23.366;2023-01-30T10:47:47;51829.66;;;-145.06;63.05
6530;BME280;3298;42.688;23.366;2023-01-30T10:50:23;51829.66;;;-145.06;62.09
6530;BME280;3298;42.688;23.366;2023-01-30T10:52:55;51815.34;;;-145.06;62.13
6530;BME280;3298;42.688;23.366;2023-01-30T10:55:31;51846.03;;;-145.06;62.75
6530;BME280;3298;42.688;23.366;2023-01-30T10:58:07;51827.63;;;-145.06;62.49
6530;BME280;3298;42.688;23.366;2023-01-30T11:00:42;51823.53;;;-145.06;62.36
6530;BME280;3298;42.688;23.366;2023-01-30T11:03:17;51823.53;;;-145.06;62.28
6530;BME280;3298;42.688;23.366;2023-01-30T11:05:48;51839.91;;;-145.06;63.28
6530;BME280;3298;42.688;23.366;2023-01-30T11:08:21;51811.25;;;-145.06;62.36
6530;BME280;3298;42.688;23.366;2023-01-30T11:10:49;51803.06;;;-145.06;61.98
6530;BME280;3298;42.688;23.366;2023-01-30T11:13:18;51811.25;;;-145.06;62.01
6530;BME280;3298;42.688;23.366;2023-01-30T11:15:49;51831.72;;;-145.06;61.55
6530;BME280;3298;42.688;23.366;2023-01-30T11:18:17;51841.94;;;-145.06;61.36
6530;BME280;3298;42.688;23.366;2023-01-30T11:21:01;51819.44;;;-145.06;61.70
6530;BME280;3298;42.688;23.366;2023-01-30T11:23:33;51850.13;;;-145.06;61.74
6530;BME280;3298;42.688;23.366;2023-01-30T11:26:02;51821.47;;;-145.06;61.88
6530;BME280;3298;42.688;23.366;2023-01-30T11:28:38;51811.25;;;-145.06;61.26
6530;BME280;3298;42.688;23.366;2023-01-30T11:31:16;51827.63;;;-145.06;62.12
6530;BME280;3298;42.688;23.366;2023-01-30T11:33:43;51831.72;;;-145.06;62.23
6530;BME280;3298;42.688;23.366;2023-01-30T11:36:25;51823.53;;;-145.06;61.65
6530;BME280;3298;42.688;23.366;2023-01-30T11:38:57;51813.28;;;-145.06;60.75
6530;BME280;3298;42.688;23.366;2023-01-30T11:41:24;51825.56;;;-145.06;60.74
6530;BME280;3298;42.688;23.366;2023-01-30T11:43:58;51798.97;;;-145.06;60.99
6530;BME280;3298;42.688;23.366;2023-01-30T11:46:30;51809.19;;;-145.06;60.53
6530;BME280;3298;42.688;23.366;2023-01-30T11:49:01;51819.44;;;-145.06;60.68
6530;BME280;3298;42.688;23.366;2023-01-30T11:51:32;51829.66;;;-145.06;61.05
6530;BME280;3298;42.688;23.366;2023-01-30T11:54:02;51823.53;;;-145.06;59.63
6530;BME280;3298;42.688;23.366;2023-01-30T11:56:32;51837.84;;;-145.06;59.59
6530;BME280;3298;42.688;23.366;2023-01-30T11:59:03;51921.75;;;-145.06;59.72
6530;BME280;3298;42.688;23.366;2023-01-30T12:01:33;51801.00;;;-145.06;59.37
6530;BME280;3298;42.688;23.366;2023-01-30T12:04:05;51829.66;;;-145.06;59.50
6530;BME280;3298;42.688;23.366;2023-01-30T12:06:36;51815.34;;;-145.06;60.07
6530;BME280;3298;42.688;23.366;2023-01-30T12:09:04;51831.72;;;-145.06;59.22
6530;BME280;3298;42.688;23.366;2023-01-30T12:11:41;51805.09;;;-145.06;60.01
6530;BME280;3298;42.688;23.366;2023-01-30T12:14:20;51827.63;;;-145.06;59.38
6530;BME280;3298;42.688;23.366;2023-01-30T12:17:03;51839.91;;;-145.06;59.66
6530;BME280;3298;42.688;23.366;2023-01-30T12:19:41;51827.63;;;-145.06;59.67
6530;BME280;3298;42.688;23.366;2023-01-30T12:22:17;51844.00;;;-145.06;59.16
6530;BME280;3298;42.688;23.366;2023-01-30T12:24:56;51860.38;;;-145.06;59.38
6530;BME280;3298;42.688;23.366;2023-01-30T12:27:28;51827.63;;;-145.06;59.58
6530;BME280;3298;42.688;23.366;2023-01-30T12:30:03;51811.25;;;-145.06;59.37
6530;BME280;3298;42.688;23.366;2023-01-30T12:32:33;51819.44;;;-145.06;58.54
6530;BME280;3298;42.688;23.366;2023-01-30T12:35:01;51809.19;;;-145.06;58.81
6530;BME280;3298;42.688;23.366;2023-01-30T12:37:40;51815.34;;;-145.06;58.03
6530;BME280;3298;42.688;23.366;2023-01-30T12:40:23;51815.34;;;-145.06;58.63
6530;BME280;3298;42.688;23.366;2023-01-30T12:43:11;51815.34;;;-145.06;58.06
6530;BME280;3298;42.688;23.366;2023-01-30T12:45:45;51813.28;;;-145.06;57.10
6530;BME280;3298;42.688;23.366;2023-01-30T12:48:38;51790.78;;;-145.06;56.95
6530;BME280;3298;42.688;23.366;2023-01-30T12:51:18;51811.25;;;-145.06;57.98
6530;BME280;3298;42.688;23.366;2023-01-30T12:53:54;51809.19;;;-145.06;57.11
6530;BME280;3298;42.688;23.366;2023-01-30T12:56:38;51825.56;;;-145.06;57.32
6530;BME280;3298;42.688;23.366;2023-01-30T12:59:11;51829.66;;;-145.06;57.65
6530;BME280;3298;42.688;23.366;2023-01-30T13:12:42;51833.75;;;-145.06;58.46
6530;BME280;3298;42.688;23.366;2023-01-30T13:15:19;51788.72;;;-145.06;58.12
6530;BME280;3298;42.688;23.366;2023-01-30T13:17:58;51794.88;;;-145.06;58.82
6530;BME280;3298;42.688;23.366;2023-01-30T13:20:41;51827.63;;;-145.06;57.93
6530;BME280;3298;42.688;23.366;2023-01-30T13:23:16;51823.53;;;-145.06;58.27
6530;BME280;3298;42.688;23.366;2023-01-30T13:25:49;51833.75;;;-145.06;58.31
6530;BME280;3298;42.688;23.366;2023-01-30T13:28:25;51778.50;;;-145.06;58.38
6530;BME280;3298;42.688;23.366;2023-01-30T13:30:54;51846.03;;;-145.06;57.55
6530;BME280;3298;42.688;23.366;2023-01-30T13:33:24;51819.44;;;-145.06;58.20
6530;BME280;3298;42.688;23.366;2023-01-30T13:35:56;51794.88;;;-145.06;57.88
6530;BME280;3298;42.688;23.366;2023-01-30T13:38:30;51819.44;;;-145.06;58.31
6530;BME280;3298;42.688;23.366;2023-01-30T13:40:58;51809.19;;;-145.06;58.31
6530;BME280;3298;42.688;23.366;2023-01-30T13:43:30;51803.06;;;-145.06;57.48
6530;BME280;3298;42.688;23.366;2023-01-30T13:46:00;51819.44;;;-145.06;58.60
6530;BME280;3298;42.688;23.366;2023-01-30T13:48:37;51821.47;;;-145.06;58.13
6530;BME280;3298;42.688;23.366;2023-01-30T13:54:05;51813.28;;;-145.06;57.21
6530;BME280;3298;42.688;23.366;2023-01-30T13:56:39;51835.81;;;-145.06;58.26
6530;BME280;3298;42.688;23.366;2023-01-30T13:59:19;51815.34;;;-145.06;57.69
6530;BME280;3298;42.688;23.366;2023-01-30T14:02:23;51807.16;;;-145.06;57.97
6530;BME280;3298;42.688;23.366;2023-01-30T14:04:51;51805.09;;;-145.06;57.97
6530;BME280;3298;42.688;23.366;2023-01-30T14:07:24;51817.38;;;-145.06;58.23
6530;BME280;3298;42.688;23.366;2023-01-30T14:10:03;51798.97;;;-145.06;57.62
6530;BME280;3298;42.688;23.366;2023-01-30T14:12:34;51827.63;;;-145.06;57.42
6530;BME280;3298;42.688;23.366;2023-01-30T14:15:10;51831.72;;;-145.06;57.61
6530;BME280;3298;42.688;23.366;2023-01-30T14:17:56;51819.44;;;-145.06;57.31
6530;BME280;3298;42.688;23.366;2023-01-30T14:20:24;51815.34;;;-145.06;57.82
6530;BME280;3298;42.688;23.366;2023-01-30T14:22:52;51798.97;;;-145.06;57.94
6530;BME280;3298;42.688;23.366;2023-01-30T14:25:45;51809.19;;;-145.06;57.81
6530;BME280;3298;42.688;23.366;2023-01-30T14:34:47;51819.44;;;-145.06;57.61
6530;BME280;3298;42.688;23.366;2023-01-30T14:37:45;51815.34;;;-145.06;58.03
6530;BME280;3298;42.688;23.366;2023-01-30T14:40:33;51798.97;;;-145.06;57.97
6530;BME280;3298;42.688;23.366;2023-01-30T14:46:40;51790.78;;;-145.06;58.30
6530;BME280;3298;42.688;23.366;2023-01-30T14:49:20;51819.44;;;-145.06;58.49
6530;BME280;3298;42.688;23.366;2023-01-30T14:51:51;51823.53;;;-145.06;58.07
6530;BME280;3298;42.688;23.366;2023-01-30T14:54:25;51837.84;;;-145.06;58.49
6530;BME280;3298;42.688;23.366;2023-01-30T14:56:55;51833.75;;;-145.06;58.60
6530;BME280;3298;42.688;23.366;2023-01-30T14:59:26;51811.25;;;-145.06;58.76
6530;BME280;3298;42.688;23.366;2023-01-30T15:02:00;51823.53;;;-145.06;58.98
6530;BME280;3298;42.688;23.366;2023-01-30T15:04:31;51817.38;;;-145.06;59.69
6530;BME280;3298;42.688;23.366;2023-01-30T15:07:06;51844.00;;;-145.06;60.15
6530;BME280;3298;42.688;23.366;2023-01-30T15:09:36;51790.78;;;-145.06;60.63
6530;BME280;3298;42.688;23.366;2023-01-30T15:12:32;51782.59;;;-145.06;60.68
6530;BME280;3298;42.688;23.366;2023-01-30T15:15:14;51798.97;;;-145.06;60.96
6530;BME280;3298;42.688;23.366;2023-01-30T15:17:53;51829.66;;;-145.06;61.60
6530;BME280;3298;42.688;23.366;2023-01-30T15:20:31;51819.44;;;-145.06;61.81
6530;BME280;3298;42.688;23.366;2023-01-30T15:23:27;51786.69;;;-145.06;61.84
6530;BME280;3298;42.688;23.366;2023-01-30T15:26:10;51809.19;;;-145.06;62.40
6530;BME280;3298;42.688;23.366;2023-01-30T15:28:48;51829.66;;;-145.06;61.48
6530;BME280;3298;42.688;23.366;2023-01-30T15:31:20;51778.50;;;-145.06;62.38
6530;BME280;3298;42.688;23.366;2023-01-30T15:33:49;51815.34;;;-145.06;63.35
6530;BME280;3298;42.688;23.366;2023-01-30T15:36:19;51811.25;;;-145.06;62.93
6530;BME280;3298;42.688;23.366;2023-01-30T15:38:54;51805.09;;;-145.06;63.17
6530;BME280;3298;42.688;23.366;2023-01-30T15:41:22;51819.44;;;-145.06;63.05
6530;BME280;3298;42.688;23.366;2023-01-30T15:44:02;51813.28;;;-145.06;63.33
6530;BME280;3298;42.688;23.366;2023-01-30T15:46:40;51815.34;;;-145.06;63.43
6530;BME280;3298;42.688;23.366;2023-01-30T15:49:45;51815.34;;;-145.06;62.63
6530;BME280;3298;42.688;23.366;2023-01-30T15:52:18;51811.25;;;-145.06;63.11
6530;BME280;3298;42.688;23.366;2023-01-30T15:54:50;51846.03;;;-145.06;62.89
6530;BME280;3298;42.688;23.366;2023-01-30T15:57:22;51827.63;;;-145.06;63.30